• Join FlightAware (Why Join?)
  • Login
  • US Flag 
09:01PM EST


 

Airport Tracker/Info


-or-


 

Live Flight TrackerFlight Track Log ✈ EJA122 ✈ 10-Jul-2013 ✈ KIXD - KMZZ

Flight Track Log - Related Links

Times and Time Zones

All times are in EDT time to prevent confusion due to time zone crossing. See the EJA122 flight status page for this flight to view local times or setup timezone preferences in your user account.

Time Position Orientation Groundspeed Altitude Reporting Facility
EDT Latitude Longitude Course Direction KTS MPH feet Rate Location/Type
05:00PM 38.9167 -94.8333 35° Northeast 255 293 3,000  Level Kansas City TRACON
05:01PM 38.9481 -94.8056 35° Northeast 254 292 3,000 371 Level Kansas City Center
05:02PM 38.9786 -94.7272 63° Northeast 258 297 3,600 1,645 Climbing Kansas City Center
05:03PM 39.0142 -94.6267 66° East 278 320 6,400 2,855 Climbing Kansas City Center
05:04PM 39.0464 -94.5469 62° Northeast 263 303 9,500 2,177 Climbing Kansas City Center
05:05PM 39.1000 -94.4500 55° Northeast 301 346 10,900 1,440 Climbing Kansas City Center
05:06PM 39.1528 -94.3606 53° Northeast 326 375 12,500 1,680 Climbing Kansas City Center
05:07PM 39.2147 -94.2519 54° Northeast 335 386 14,400 1,694 Climbing Kansas City Center
05:08PM 39.2683 -94.1592 53° Northeast 337 388 16,000 1,645 Climbing Kansas City Center
05:09PM 39.3314 -94.0500 53° Northeast 341 392 17,800 1,645 Climbing Kansas City Center
05:10PM 39.3819 -93.9528 56° Northeast 341 392 19,400 1,548 Climbing Kansas City Center
05:11PM 39.4011 -93.8367 78° East 346 398 21,000 1,694 Climbing Kansas City Center
05:12PM 39.4186 -93.7006 81° East 341 392 22,900 1,742 Climbing Kansas City Center
05:13PM 39.4314 -93.5831 82° East 336 387 24,600 1,452 Climbing Kansas City Center
05:14PM 39.4461 -93.4678 81° East 329 379 25,900 1,113 Climbing Kansas City Center
05:15PM 39.4608 -93.3456 81° East 342 394 26,900 1,161 Climbing Kansas City Center
05:16PM 39.4794 -93.1914 81° East 366 421 28,300 1,161 Climbing Kansas City Center
05:17PM 39.4947 -93.0589 81° East 375 432 29,300 1,016 Climbing Kansas City Center
05:18PM 39.5103 -92.9247 81° East 379 436 30,400 1,065 Climbing Kansas City Center
05:19PM 39.5269 -92.7878 81° East 386 444 31,500 774 Climbing Kansas City Center
05:20PM 39.5425 -92.6494 82° East 390 449 32,000 290 Climbing Kansas City Center
05:21PM 39.5617 -92.4694 82° East 412 474 32,100 484 Climbing Kansas City Center
05:22PM 39.5794 -92.3119 82° East 428 493 33,000 435 Climbing Kansas City Center
05:23PM 39.5964 -92.1561 82° East 437 503 33,000  Level Kansas City Center
05:24PM 39.6133 -91.9953 82° East 447 514 33,000  Level Kansas City Center
05:25PM 39.6342 -91.7958 82° East 464 534 33,000  Level Kansas City Center
05:26PM 39.6531 -91.6264 82° East 475 547 33,000  Level Kansas City Center
05:27PM 39.6717 -91.4594 82° East 476 548 33,000  Level Kansas City Center
05:29PM 39.6900 -91.2836 82° East 464 534 33,000  Level Kansas City Center
05:30PM 39.7053 -91.1242 83° East 452 520 33,000  Level Kansas City Center
05:31PM 39.7222 -90.9644 82° East 448 516 33,000  Level Kansas City Center
05:32PM 39.7369 -90.8089 83° East 440 506 33,000  Level Kansas City Center
05:33PM 39.7517 -90.6414 83° East 440 506 33,000  Level Kansas City Center
05:34PM 39.7669 -90.4842 83° East 441 507 33,000  Level Kansas City Center
05:35PM 39.7814 -90.3272 83° East 440 506 33,000  Level Kansas City Center
05:36PM 39.7992 -90.1383 83° East 441 507 33,000  Level Kansas City Center
05:37PM 39.8128 -89.9794 84° East 443 510 33,000  Level Kansas City Center
05:38PM 39.8258 -89.8225 84° East 441 507 33,000  Level Kansas City Center
05:39PM 39.8417 -89.6653 82° East 441 507 33,000  Level Kansas City Center
05:40PM 39.8753 -89.5150 74° East 439 505 33,000  Level Kansas City Center
05:41PM 39.9161 -89.3319 74° East 438 504 33,000  Level Kansas City Center
05:42PM 39.9494 -89.1803 74° East 439 505 33,000  Level Kansas City Center
05:43PM 39.9825 -89.0275 74° East 439 505 33,000  Level Kansas City Center
05:44PM 40.0164 -88.8744 74° East 441 507 33,000  Level Kansas City Center
05:45PM 40.0481 -88.7217 75° East 446 513 33,000  Level Chicago Center
05:46PM 40.0817 -88.5669 74° East 445 512 33,000 -240 Level Chicago Center
05:47PM 40.1144 -88.4114 75° East 446 513 32,500 -726 Descending Chicago Center
05:48PM 40.1481 -88.2478 75° East 460 529 31,500 -1,065 Descending Chicago Center
05:49PM 40.1925 -88.0433 74° East 482 555 30,300 -1,065 Descending Chicago Center
05:50PM 40.2275 -87.8725 75° East 492 566 29,300 -968 Descending Chicago Center
05:51PM 40.2639 -87.6986 75° East 498 573 28,300 -1,016 Descending Chicago Center
05:52PM 40.2986 -87.5247 75° East 499 574 27,200 -1,113 Descending Chicago Center
05:53PM 40.3192 -87.3342 82° East 487 560 26,000 -1,210 Descending Chicago Center
05:54PM 40.3397 -87.1564 81° East 492 566 24,700 -3,387 Descending Chicago Center
05:55PM 40.3578 -86.9858 82° East 478 550 19,000 -4,597 Descending Chicago Center
05:56PM 40.3736 -86.8317 82° East 437 503 15,200 -3,677 Descending Chicago Center
05:57PM 40.3950 -86.6519 81° East 418 481 11,400 -2,780 Descending Chicago Center
05:58PM 40.4089 -86.5167 82° East 383 441 9,500 -1,645 Descending Chicago Center
05:59PM 40.4197 -86.4094 82° East 313 360 8,000 -1,872 Descending Chicago Center
06:00PM 40.4319 -86.3053 81° East 295 339 5,600 -2,129 Descending Chicago Center
06:02PM 40.4417 -86.2031 83° East 287 330 3,600 -1,220 Descending Chicago Center
06:03PM 40.4506 -86.1075 83° East 280 322 3,100 -293 Descending Chicago Center
06:04PM 40.4611 -86.0092 82° East 273 314 3,000 -97 Descending Chicago Center
06:05PM 40.4742 -85.8822 82° East 282 325 2,900  Descending Chicago Center
06:06PM 40.4825 -85.8061 82° East 279 321 3,000 97 Climbing Chicago Center
06:08PM 40.4899 -85.6798 North  Level Estimated
06:15PM 40.4899 -85.6798 North  Level Estimated
06:16PM 40.4899 -85.6798 North  Level Estimated